createdAt,value
2019-05-18T00:00:40.284Z,95164.39
2019-05-18T00:03:08.694Z,95165.50
2019-05-18T00:05:37.106Z,95170.24
2019-05-18T00:08:05.525Z,95174.09
2019-05-18T00:10:33.921Z,95173.89
2019-05-18T00:13:02.361Z,95171.16
2019-05-18T00:15:30.783Z,95169.75
2019-05-18T00:17:59.192Z,95165.50
2019-05-18T00:20:27.758Z,95169.48
2019-05-18T00:22:56.193Z,95168.48
2019-05-18T00:25:24.597Z,95173.38
2019-05-18T00:27:52.989Z,95170.69
2019-05-18T00:30:21.564Z,95166.55
2019-05-18T00:32:49.947Z,95168.59
2019-05-18T00:35:18.353Z,95168.08
2019-05-18T00:37:46.769Z,95165.10
2019-05-18T00:40:15.307Z,95171.56
2019-05-18T00:42:43.707Z,95165.16
2019-05-18T00:45:12.431Z,95174.23
2019-05-18T00:47:42.220Z,95170.77
2019-05-18T00:50:11.337Z,95174.86
2019-05-18T00:52:39.834Z,95168.14
2019-05-18T00:55:09.273Z,95165.38
2019-05-18T00:57:37.677Z,95169.65
2019-05-18T01:00:08.513Z,95164.06
2019-05-18T01:02:36.905Z,95159.27
2019-05-18T01:05:06.043Z,95162.83
2019-05-18T01:07:34.611Z,95167.09
2019-05-18T01:10:03.255Z,95161.30
2019-05-18T01:12:31.657Z,95155.89
2019-05-18T01:15:00.215Z,95157.84
2019-05-18T01:17:28.611Z,95154.17
2019-05-18T01:19:57.044Z,95148.78
2019-05-18T01:22:25.577Z,95156.62
2019-05-18T01:24:53.975Z,95159.86
2019-05-18T01:27:22.375Z,95160.27
2019-05-18T01:29:50.811Z,95157.52
2019-05-18T01:32:19.205Z,95153.26
2019-05-18T01:34:47.745Z,95149.89
2019-05-18T01:37:16.262Z,95153.45
2019-05-18T01:39:44.705Z,95154.17
2019-05-18T01:42:13.106Z,95145.30
2019-05-18T01:44:41.608Z,95145.22
2019-05-18T01:47:10.018Z,95144.71
2019-05-18T01:49:38.431Z,95144.17
2019-05-18T01:52:06.937Z,95146.02
2019-05-18T01:54:35.331Z,95148.68
2019-05-18T01:57:03.736Z,95145.00
2019-05-18T01:59:32.279Z,95141.42
2019-05-18T02:02:00.678Z,95142.34
2019-05-18T02:04:29.069Z,95143.77
2019-05-18T02:06:57.649Z,95145.41
2019-05-18T02:09:26.050Z,95145.72
2019-05-18T02:11:54.449Z,95145.91
2019-05-18T02:14:22.880Z,95150.08
2019-05-18T02:16:51.272Z,95142.23
2019-05-18T02:19:19.676Z,95137.17
2019-05-18T02:21:48.094Z,95140.31
2019-05-18T02:24:16.492Z,95138.98
2019-05-18T02:26:44.890Z,95138.37
2019-05-18T02:29:13.740Z,95139.69
2019-05-18T02:31:42.139Z,95144.88
2019-05-18T02:34:10.539Z,95142.23
2019-05-18T02:36:39.087Z,95138.78
2019-05-18T02:39:08.723Z,95137.27
2019-05-18T02:41:37.558Z,95142.56
2019-05-18T02:44:06.418Z,95140.91
2019-05-18T02:46:34.956Z,95136.66
2019-05-18T02:49:03.366Z,95140.31
2019-05-18T02:51:31.913Z,95138.37
2019-05-18T02:54:00.389Z,95137.45
2019-05-18T02:56:28.864Z,95137.55
2019-05-18T02:58:57.289Z,95134.61
2019-05-18T03:01:25.761Z,95132.05
2019-05-18T03:03:54.220Z,95137.42
2019-05-18T03:06:22.950Z,95130.58
2019-05-18T03:08:51.608Z,95132.00
2019-05-18T03:11:20.057Z,95124.13
2019-05-18T03:13:48.747Z,95121.48
2019-05-18T03:16:17.211Z,95125.59
2019-05-18T03:18:45.633Z,95124.41
2019-05-18T03:21:14.054Z,95127.14
2019-05-18T03:23:42.450Z,95118.59
2019-05-18T03:26:10.856Z,95123.05
2019-05-18T03:28:39.264Z,95129.08
2019-05-18T03:31:07.856Z,95125.73
2019-05-18T03:33:36.236Z,95126.02
2019-05-18T03:36:04.743Z,95132.44
2019-05-18T03:38:33.128Z,95124.83
2019-05-18T03:41:01.521Z,95132.72
2019-05-18T03:43:30.118Z,95133.14
2019-05-18T03:45:58.532Z,95141.55
2019-05-18T03:48:26.941Z,95140.76
2019-05-18T03:50:55.459Z,95145.33
2019-05-18T03:53:23.853Z,95144.14
2019-05-18T03:55:52.266Z,95147.09
2019-05-18T03:58:20.789Z,95151.97
2019-05-18T04:00:49.218Z,95154.02
2019-05-18T04:03:17.592Z,95153.72
2019-05-18T04:05:46.134Z,95151.38
2019-05-18T04:08:14.535Z,95152.13
2019-05-18T04:10:42.933Z,95157.94
2019-05-18T04:13:11.493Z,95153.27
2019-05-18T04:15:39.875Z,95158.98
2019-05-18T04:18:08.283Z,95164.63
2019-05-18T04:20:36.916Z,95166.75
2019-05-18T04:23:05.313Z,95173.27
2019-05-18T04:25:33.718Z,95178.58
2019-05-18T04:28:02.128Z,95181.73
2019-05-18T04:30:31.178Z,95187.12
2019-05-18T04:32:59.930Z,95184.57
2019-05-18T04:35:28.455Z,95181.92
2019-05-18T04:37:56.850Z,95183.30
2019-05-18T04:40:25.248Z,95185.05
2019-05-18T04:42:53.863Z,95180.94
2019-05-18T04:45:22.254Z,95188.26
2019-05-18T04:47:50.656Z,95188.07
2019-05-18T04:50:19.161Z,95187.55
2019-05-18T04:52:47.573Z,95190.34
2019-05-18T04:55:16.118Z,95191.63
2019-05-18T04:57:44.556Z,95181.66
2019-05-18T05:00:17.013Z,95182.66
2019-05-18T05:02:45.434Z,95189.41
2019-05-18T05:05:13.931Z,95196.03
2019-05-18T05:07:42.359Z,95195.97
2019-05-18T05:10:11.001Z,95188.55
2019-05-18T05:12:39.523Z,95186.61
2019-05-18T05:15:08.356Z,95185.29
2019-05-18T05:17:36.820Z,95185.48
2019-05-18T05:20:19.411Z,95191.81
2019-05-18T05:22:38.758Z,95186.29
2019-05-18T05:25:07.592Z,95190.45
2019-05-18T05:27:36.140Z,95190.45
2019-05-18T05:30:06.881Z,95193.20
2019-05-18T05:32:35.277Z,95192.00
2019-05-18T05:35:04.747Z,95198.23
2019-05-18T05:37:33.184Z,95191.91
2019-05-18T05:40:01.603Z,95198.55
2019-05-18T05:42:30.004Z,95196.12
2019-05-18T05:44:58.408Z,95190.93
2019-05-18T05:47:26.827Z,95195.81
2019-05-18T05:49:55.542Z,95192.06
2019-05-18T05:52:23.944Z,95196.23
2019-05-18T05:54:52.409Z,95203.36
2019-05-18T05:57:20.960Z,95201.97
2019-05-18T05:59:49.359Z,95205.00
2019-05-18T06:02:17.756Z,95209.28
2019-05-18T06:04:46.327Z,95203.90
2019-05-18T06:07:14.798Z,95200.84
2019-05-18T06:09:43.193Z,95196.87
2019-05-18T06:12:11.876Z,95194.31
2019-05-18T06:14:40.284Z,95191.06
2019-05-18T06:17:08.695Z,95199.14
2019-05-18T06:19:37.150Z,95202.61
2019-05-18T06:22:05.546Z,95200.13
2019-05-18T06:24:33.949Z,95201.67
2019-05-18T06:27:02.475Z,95200.31
2019-05-18T06:29:30.872Z,95204.82
2019-05-18T06:31:59.317Z,95207.97
2019-05-18T06:34:27.786Z,95210.30
2019-05-18T06:36:56.190Z,95208.55
2019-05-18T06:39:24.593Z,95208.03
2019-05-18T06:41:53.053Z,95211.17
2019-05-18T06:44:21.458Z,95215.23
2019-05-18T06:46:49.855Z,95212.05
2019-05-18T06:49:18.281Z,95216.20
2019-05-18T06:51:46.680Z,95208.19
2019-05-18T06:54:15.084Z,95205.36
2019-05-18T06:56:43.833Z,95203.97
2019-05-18T06:59:12.785Z,95210.06
2019-05-18T07:01:43.226Z,95209.29
2019-05-18T07:04:11.916Z,95214.69
2019-05-18T07:06:40.491Z,95218.20
2019-05-18T07:09:14.085Z,95212.62
2019-05-18T07:11:39.811Z,95215.63
2019-05-18T07:14:08.292Z,95212.49
2019-05-18T07:16:36.684Z,95214.07
2019-05-18T07:19:05.105Z,95211.42
2019-05-18T07:21:33.504Z,95212.98
2019-05-18T07:24:01.907Z,95209.23
2019-05-18T07:26:30.324Z,95202.02
2019-05-18T07:28:58.728Z,95204.92
2019-05-18T07:31:27.116Z,95209.36
2019-05-18T07:33:57.188Z,95200.27
2019-05-18T07:36:25.586Z,95199.17
2019-05-18T07:38:53.992Z,95202.06
2019-05-18T07:41:22.612Z,95192.94
2019-05-18T07:43:51.013Z,95193.38
2019-05-18T07:46:19.415Z,95189.66
2019-05-18T07:48:47.950Z,95185.52
2019-05-18T07:51:16.353Z,95189.03
2019-05-18T07:53:44.759Z,95182.95
2019-05-18T07:56:13.193Z,95183.68
2019-05-18T07:58:41.592Z,95185.58
2019-05-18T08:01:10.057Z,95182.14
2019-05-18T08:03:38.476Z,95181.81
2019-05-18T08:06:06.869Z,95183.70
2019-05-18T08:08:35.262Z,95183.72
2019-05-18T08:11:03.870Z,95183.28
2019-05-18T08:13:32.262Z,95187.38
2019-05-18T08:16:00.671Z,95181.23
2019-05-18T08:18:29.208Z,95180.12
2019-05-18T08:20:57.614Z,95179.77
2019-05-18T08:23:26.021Z,95182.60
2019-05-18T08:25:54.448Z,95174.76
2019-05-18T08:28:22.852Z,95170.73
2019-05-18T08:30:51.274Z,95176.58
2019-05-18T08:33:19.772Z,95172.42
2019-05-18T08:35:48.174Z,95175.44
2019-05-18T08:38:16.653Z,95174.52
2019-05-18T08:40:45.225Z,95178.11
2019-05-18T08:43:13.629Z,95168.87
2019-05-18T08:45:42.038Z,95170.31
2019-05-18T08:48:10.527Z,95171.23
2019-05-18T08:50:38.939Z,95166.30
2019-05-18T08:53:07.328Z,95163.80
2019-05-18T08:55:35.753Z,95166.68
2019-05-18T08:58:04.167Z,95163.41
2019-05-18T09:00:32.574Z,95167.58
2019-05-18T09:03:01.143Z,95165.40
2019-05-18T09:05:29.532Z,95163.38
2019-05-18T09:07:58.196Z,95165.73
2019-05-18T09:10:26.647Z,95169.61
2019-05-18T09:12:55.046Z,95172.73
2019-05-18T09:15:23.585Z,95169.63
2019-05-18T09:17:52.131Z,95166.26
2019-05-18T09:20:21.174Z,95161.47
2019-05-18T09:22:50.609Z,95164.12
2019-05-18T09:25:19.133Z,95162.24
2019-05-18T09:27:47.534Z,95159.91
2019-05-18T09:30:16.466Z,95158.69
2019-05-18T09:32:45.062Z,95160.47
2019-05-18T09:35:14.006Z,95153.72
2019-05-18T09:37:42.403Z,95152.29
2019-05-18T09:40:11.328Z,95155.39
2019-05-18T09:42:39.727Z,95151.21
2019-05-18T09:45:10.070Z,95148.36
2019-05-18T09:47:38.713Z,95152.66
2019-05-18T09:50:07.548Z,95147.11
2019-05-18T09:52:44.634Z,95145.86
2019-05-18T09:55:07.984Z,95151.06
2019-05-18T09:57:36.449Z,95143.15
2019-05-18T10:00:10.556Z,95148.13
2019-05-18T10:02:39.837Z,95143.92
2019-05-18T10:05:09.372Z,95134.59
2019-05-18T10:07:37.842Z,95138.97
2019-05-18T10:10:07.798Z,95128.34
2019-05-18T10:12:36.210Z,95133.80
2019-05-18T10:15:07.053Z,95134.94
2019-05-18T10:17:35.646Z,95128.04
2019-05-18T10:20:07.264Z,95126.48
2019-05-18T10:22:35.698Z,95121.39
2019-05-18T10:25:08.125Z,95120.33
2019-05-18T10:27:36.538Z,95119.05
2019-05-18T10:30:08.556Z,95119.35
2019-05-18T10:32:36.987Z,95114.27
2019-05-18T10:35:07.891Z,95110.25
2019-05-18T10:37:36.297Z,95107.56
2019-05-18T10:40:07.124Z,95110.56
2019-05-18T10:42:35.536Z,95113.25
2019-05-18T10:45:05.108Z,95099.81
2019-05-18T10:47:33.535Z,95103.30
2019-05-18T10:50:01.933Z,95100.86
2019-05-18T10:52:30.331Z,95101.13
2019-05-18T10:54:58.924Z,95098.67
2019-05-18T10:57:27.337Z,95092.77
2019-05-18T10:59:58.384Z,95093.81
2019-05-18T11:02:26.937Z,95088.11
2019-05-18T11:04:55.958Z,95083.50
2019-05-18T11:07:24.362Z,95077.84
2019-05-18T11:09:52.890Z,95081.05
2019-05-18T11:12:21.330Z,95080.18
2019-05-18T11:14:49.708Z,95082.53
2019-05-18T11:17:18.329Z,95078.45
2019-05-18T11:19:46.721Z,95076.56
2019-05-18T11:22:15.121Z,95067.91
2019-05-18T11:24:43.633Z,95072.49
2019-05-18T11:27:12.027Z,95069.99
2019-05-18T11:29:40.500Z,95067.22
2019-05-18T11:32:09.007Z,95071.16
2019-05-18T11:34:37.409Z,95069.99
2019-05-18T11:37:05.878Z,95065.63
2019-05-18T11:39:34.296Z,95062.69
2019-05-18T11:42:02.696Z,95069.75
2019-05-18T11:44:31.095Z,95063.58
2019-05-18T11:46:59.525Z,95059.86
2019-05-18T11:49:29.164Z,95059.04
2019-05-18T11:51:57.869Z,95057.59
2019-05-18T11:54:26.416Z,95056.70
2019-05-18T11:56:54.834Z,95053.31
2019-05-18T11:59:23.283Z,95055.39
2019-05-18T12:01:51.701Z,95057.42
2019-05-18T12:04:20.103Z,95054.36
2019-05-18T12:06:48.517Z,95060.52
2019-05-18T12:09:17.037Z,95052.06
2019-05-18T12:11:45.504Z,95047.39
2019-05-18T12:14:13.922Z,95050.73
2019-05-18T12:16:42.342Z,95043.11
2019-05-18T12:19:10.749Z,95045.20
2019-05-18T12:21:39.151Z,95050.52
2019-05-18T12:24:15.482Z,95046.98
2019-05-18T12:26:37.865Z,95045.89
2019-05-18T12:29:06.263Z,95042.45
2019-05-18T12:31:34.793Z,95045.77
2019-05-18T12:34:03.211Z,95037.70
2019-05-18T12:36:31.667Z,95041.00
2019-05-18T12:39:00.089Z,95038.81
2019-05-18T12:41:31.182Z,95038.56
2019-05-18T12:43:59.853Z,95044.61
2019-05-18T12:46:28.394Z,95041.98
2019-05-18T12:48:56.875Z,95040.92
2019-05-18T12:51:25.348Z,95039.28
2019-05-18T12:53:54.561Z,95032.44
2019-05-18T12:56:22.975Z,95045.64
2019-05-18T12:58:51.352Z,95047.52
2019-05-18T13:01:19.785Z,95037.06
2019-05-18T13:03:48.180Z,95038.46
2019-05-18T13:06:16.574Z,95034.87
2019-05-18T13:08:45.008Z,95033.17
2019-05-18T13:11:13.409Z,95034.52
2019-05-18T13:13:41.797Z,95031.22
2019-05-18T13:16:10.421Z,95019.28
2019-05-18T13:18:38.818Z,95016.30
2019-05-18T13:21:07.238Z,95011.27
2019-05-18T13:23:35.762Z,95021.88
2019-05-18T13:26:04.233Z,95019.86
2019-05-18T13:28:32.628Z,95010.01
2019-05-18T13:31:04.072Z,95014.51
2019-05-18T13:33:32.537Z,95011.91
2019-05-18T13:36:00.935Z,95014.34
2019-05-18T13:38:29.381Z,95012.56
2019-05-18T13:40:57.778Z,95013.14
2019-05-18T13:43:26.182Z,95006.09
2019-05-18T13:45:54.761Z,95012.80
2019-05-18T13:48:23.151Z,95010.70
2019-05-18T13:50:51.560Z,95001.25
2019-05-18T13:53:20.103Z,95001.91
2019-05-18T13:55:48.500Z,94993.52
2019-05-18T13:58:16.902Z,94997.42
2019-05-18T14:00:45.441Z,95005.05
2019-05-18T14:03:13.833Z,95002.05
2019-05-18T14:05:42.226Z,94993.64
2019-05-18T14:08:15.525Z,94992.56
2019-05-18T14:10:40.805Z,94991.95
2019-05-18T14:13:09.192Z,94991.25
2019-05-18T14:15:37.681Z,94992.77
2019-05-18T14:18:06.151Z,94991.41
2019-05-18T14:20:34.549Z,94984.06
2019-05-18T14:23:03.086Z,94987.72
2019-05-18T14:25:31.509Z,94984.95
2019-05-18T14:27:59.901Z,94988.52
2019-05-18T14:30:28.529Z,94987.56
2019-05-18T14:32:56.928Z,94981.16
2019-05-18T14:35:26.267Z,94984.77
2019-05-18T14:37:54.808Z,94987.31
2019-05-18T14:40:23.378Z,94977.67
2019-05-18T14:42:51.787Z,94975.59
2019-05-18T14:45:20.341Z,94975.81
2019-05-18T14:47:48.733Z,94981.97
2019-05-18T14:50:19.138Z,94979.55
2019-05-18T14:52:47.578Z,94981.09
2019-05-18T14:55:16.228Z,94970.22
2019-05-18T14:57:44.635Z,94976.88
2019-05-18T15:00:13.890Z,94975.73
2019-05-18T15:02:45.048Z,94969.45
2019-05-18T15:05:13.585Z,94962.20
2019-05-18T15:07:42.197Z,94968.86
2019-05-18T15:10:11.902Z,94970.98
2019-05-18T15:12:40.308Z,94963.15
2019-05-18T15:15:09.677Z,94967.07
2019-05-18T15:17:38.249Z,94965.58
2019-05-18T15:20:08.796Z,94958.39
2019-05-18T15:22:37.301Z,94963.81
2019-05-18T15:25:06.330Z,94972.39
2019-05-18T15:27:34.726Z,94962.87
2019-05-18T15:30:03.457Z,94958.66
2019-05-18T15:32:31.842Z,94961.19
2019-05-18T15:35:00.270Z,94957.56
2019-05-18T15:37:28.703Z,94952.45
2019-05-18T15:39:57.145Z,94945.95
2019-05-18T15:42:25.502Z,94948.13
2019-05-18T15:44:54.012Z,94941.52
2019-05-18T15:47:22.421Z,94945.17
2019-05-18T15:49:50.805Z,94940.04
2019-05-18T15:52:19.225Z,94933.06
2019-05-18T15:54:47.622Z,94928.32
2019-05-18T15:57:16.043Z,94934.80
2019-05-18T15:59:44.691Z,94933.15
2019-05-18T16:02:13.116Z,94930.17
2019-05-18T16:04:41.509Z,94928.88
2019-05-18T16:07:10.032Z,94926.55
2019-05-18T16:09:38.439Z,94932.73
2019-05-18T16:12:06.942Z,94931.88
2019-05-18T16:14:35.345Z,94933.95
2019-05-18T16:17:03.741Z,94934.71
2019-05-18T16:19:32.182Z,94928.17
2019-05-18T16:22:00.759Z,94932.14
2019-05-18T16:24:29.153Z,94933.05
2019-05-18T16:26:57.569Z,94929.68
2019-05-18T16:29:26.014Z,94926.34
2019-05-18T16:31:54.385Z,94925.75
2019-05-18T16:34:22.777Z,94921.25
2019-05-18T16:36:51.204Z,94928.33
2019-05-18T16:39:19.673Z,94922.80
2019-05-18T16:41:48.069Z,94923.40
2019-05-18T16:44:16.627Z,94928.55
2019-05-18T16:46:45.094Z,94926.08
2019-05-18T16:49:13.502Z,94922.22
2019-05-18T16:51:42.157Z,94924.87
2019-05-18T16:54:10.592Z,94929.73
2019-05-18T16:56:38.964Z,94928.23
2019-05-18T16:59:07.411Z,94929.44
2019-05-18T17:01:35.876Z,94932.14
2019-05-18T17:04:25.253Z,94923.72
2019-05-18T17:06:53.665Z,94925.17
2019-05-18T17:09:22.072Z,94927.64
2019-05-18T17:11:50.489Z,94927.23
2019-05-18T17:14:18.894Z,94924.16
2019-05-18T17:16:47.298Z,94920.53
2019-05-18T17:19:15.878Z,94923.86
2019-05-18T17:21:44.286Z,94926.05
2019-05-18T17:24:12.679Z,94929.09
2019-05-18T17:26:52.407Z,94929.49
2019-05-18T17:29:11.225Z,94931.77
2019-05-18T17:31:39.626Z,94929.72
2019-05-18T17:34:08.211Z,94930.58
2019-05-18T17:36:36.613Z,94934.78
2019-05-18T17:39:06.648Z,94930.88
2019-05-18T17:41:35.220Z,94933.99
2019-05-18T17:44:03.905Z,94938.36
2019-05-18T17:46:32.290Z,94939.84
2019-05-18T17:49:00.721Z,94926.96
2019-05-18T17:51:29.113Z,94938.16
2019-05-18T17:53:57.506Z,94935.50
2019-05-18T17:56:26.209Z,94946.75
2019-05-18T17:58:54.611Z,94944.55
2019-05-18T18:01:23.005Z,94950.11
2019-05-18T18:03:51.450Z,94944.80
2019-05-18T18:06:19.851Z,94943.86
2019-05-18T18:08:48.257Z,94939.40
2019-05-18T18:11:16.691Z,94945.91
2019-05-18T18:13:45.091Z,94945.19
2019-05-18T18:16:13.568Z,94943.97
2019-05-18T18:18:42.007Z,94939.50
2019-05-18T18:21:10.427Z,94944.67
2019-05-18T18:23:38.814Z,94943.38
2019-05-18T18:26:07.317Z,94947.73
2019-05-18T18:28:35.729Z,94949.41
2019-05-18T18:31:04.195Z,94945.69
2019-05-18T18:33:32.812Z,94951.91
2019-05-18T18:36:01.209Z,94950.33
2019-05-18T18:38:29.611Z,94952.77
2019-05-18T18:40:58.047Z,94957.13
2019-05-18T18:43:26.457Z,94955.27
2019-05-18T18:45:54.853Z,94955.06
2019-05-18T18:48:26.270Z,94958.85
2019-05-18T18:50:53.418Z,94963.72
2019-05-18T18:53:21.802Z,94960.54
2019-05-18T18:55:50.217Z,94962.96
2019-05-18T18:58:18.624Z,94964.88
2019-05-18T19:00:47.015Z,94964.64
2019-05-18T19:03:15.453Z,94963.59
2019-05-18T19:05:43.854Z,94962.02
2019-05-18T19:08:12.261Z,94969.55
2019-05-18T19:10:40.686Z,94973.88
2019-05-18T19:13:09.093Z,94978.71
2019-05-18T19:15:37.565Z,94980.58
2019-05-18T19:18:06.282Z,94978.98
2019-05-18T19:20:34.692Z,94988.63
2019-05-18T19:23:03.100Z,94990.48
2019-05-18T19:25:31.626Z,94994.15
2019-05-18T19:28:00.085Z,94995.47
2019-05-18T19:30:28.478Z,95000.45
2019-05-18T19:32:57.098Z,95000.89
2019-05-18T19:35:25.503Z,94999.80
2019-05-18T19:37:53.921Z,94999.00
2019-05-18T19:40:24.084Z,95000.08
2019-05-18T19:42:52.467Z,94997.91
2019-05-18T19:45:20.870Z,94996.77
2019-05-18T19:47:49.321Z,95000.21
2019-05-18T19:50:17.802Z,94998.58
2019-05-18T19:52:46.222Z,95001.30
2019-05-18T19:55:14.817Z,94995.94
2019-05-18T19:57:43.221Z,95001.81
2019-05-18T20:00:12.335Z,95004.48
2019-05-18T20:02:40.761Z,95004.08
2019-05-18T20:05:09.702Z,95000.49
2019-05-18T20:07:38.390Z,95002.56
2019-05-18T20:10:10.616Z,95003.58
2019-05-18T20:12:39.022Z,95007.01
2019-05-18T20:15:09.504Z,94999.98
2019-05-18T20:17:38.338Z,95002.11
2019-05-18T20:20:07.877Z,94998.33
2019-05-18T20:22:36.270Z,94996.98
2019-05-18T20:25:05.550Z,95001.17
2019-05-18T20:27:34.013Z,95001.56
2019-05-18T20:30:02.412Z,95015.72
2019-05-18T20:32:30.955Z,95007.84
2019-05-18T20:34:59.349Z,95010.70
2019-05-18T20:37:27.755Z,95010.35
2019-05-18T20:39:56.295Z,95013.57
2019-05-18T20:42:24.701Z,95009.02
2019-05-18T20:44:53.098Z,95007.36
2019-05-18T20:47:21.650Z,95004.44
2019-05-18T20:49:50.049Z,95004.70
2019-05-18T20:52:18.458Z,95005.73
2019-05-18T20:54:46.874Z,95008.59
2019-05-18T20:57:15.272Z,95007.55
2019-05-18T20:59:43.668Z,95016.55
2019-05-18T21:02:12.199Z,95016.14
2019-05-18T21:04:40.594Z,95011.43
2019-05-18T21:07:09.002Z,95015.87
2019-05-18T21:09:37.614Z,95014.66
2019-05-18T21:12:06.031Z,95011.10
2019-05-18T21:14:34.432Z,95010.80
2019-05-18T21:17:02.848Z,95015.59
2019-05-18T21:19:34.165Z,95013.66
2019-05-18T21:22:02.557Z,95017.88
2019-05-18T21:24:30.982Z,95009.86
2019-05-18T21:26:59.380Z,95014.55
2019-05-18T21:29:27.840Z,95016.10
2019-05-18T21:31:56.278Z,95013.91
2019-05-18T21:34:24.672Z,95013.28
2019-05-18T21:36:53.138Z,95013.48
2019-05-18T21:39:21.576Z,95004.06
2019-05-18T21:41:49.980Z,95001.16
2019-05-18T21:44:18.382Z,95002.73
2019-05-18T21:46:46.894Z,95000.27
2019-05-18T21:49:15.288Z,94998.33
2019-05-18T21:51:43.686Z,95008.25
2019-05-18T21:54:12.248Z,95006.41
2019-05-18T21:56:40.655Z,95004.27
2019-05-18T21:59:12.215Z,94995.41
2019-05-18T22:01:39.358Z,94992.87
2019-05-18T22:04:07.732Z,94990.60
2019-05-18T22:06:36.136Z,94993.47
2019-05-18T22:09:06.407Z,94992.06
2019-05-18T22:11:35.275Z,94994.23
2019-05-18T22:14:04.812Z,94995.88
2019-05-18T22:16:33.243Z,94990.37
2019-05-18T22:19:01.638Z,94988.83
2019-05-18T22:21:30.042Z,94989.10
2019-05-18T22:23:58.712Z,94989.30
2019-05-18T22:26:27.182Z,94985.02
2019-05-18T22:28:55.579Z,94986.17
2019-05-18T22:31:24.012Z,94979.70
2019-05-18T22:33:52.447Z,94976.03
2019-05-18T22:36:20.810Z,94970.39
2019-05-18T22:38:49.392Z,94963.11
2019-05-18T22:41:17.810Z,94970.16
2019-05-18T22:43:46.195Z,94960.39
2019-05-18T22:46:14.625Z,94962.86
2019-05-18T22:48:43.024Z,94964.80
2019-05-18T22:51:11.429Z,94965.94
2019-05-18T22:53:39.971Z,94963.83
2019-05-18T22:56:08.369Z,94966.37
2019-05-18T22:58:36.768Z,94959.80
2019-05-18T23:01:05.293Z,94954.22
2019-05-18T23:03:33.668Z,94953.84
2019-05-18T23:06:02.066Z,94952.38
2019-05-18T23:08:30.498Z,94950.36
2019-05-18T23:10:58.901Z,94952.04
2019-05-18T23:13:27.299Z,94948.80
2019-05-18T23:15:55.722Z,94953.19
2019-05-18T23:18:24.129Z,94947.73
2019-05-18T23:20:52.524Z,94946.17
2019-05-18T23:23:21.069Z,94949.70
2019-05-18T23:25:49.471Z,94946.53
2019-05-18T23:28:17.864Z,94944.69
2019-05-18T23:30:46.465Z,94946.28
2019-05-18T23:33:14.902Z,94950.27
2019-05-18T23:35:43.296Z,94951.18
2019-05-18T23:38:11.740Z,94943.77
2019-05-18T23:40:40.133Z,94951.23
2019-05-18T23:43:08.531Z,94948.70
2019-05-18T23:45:37.115Z,94953.22
2019-05-18T23:48:05.587Z,94952.23
2019-05-18T23:50:33.989Z,94949.23
2019-05-18T23:53:02.604Z,94945.91
2019-05-18T23:55:31.006Z,94954.03
2019-05-18T23:58:04.976Z,94943.95
